Time;durP1;ratioP1;P1;durP2;ratioP2;P2;SDS_P1;SDS_P2;PMS_P1;PMS_P2;Temp;Humidity;BMP_temperature;BMP_pressure;BME280_temperature;BME280_humidity;BME280_pressure;Samples;Min_cycle;Max_cycle;Signal;HPM_P1;HPM_P2
2023/07/02 00:00:31;;;;;;;10.95;7.32;;;21.90;94.30;;;;;;5073203;28;20166;-73
2023/07/02 00:02:57;;;;;;;11.13;7.85;;;21.80;94.20;;;;;;5073151;28;20032;-73
2023/07/02 00:05:22;;;;;;;13.00;8.32;;;21.90;94.30;;;;;;5073045;28;20041;-73
2023/07/02 00:07:48;;;;;;;13.20;7.50;;;21.80;94.30;;;;;;5072967;28;20052;-73
2023/07/02 00:10:14;;;;;;;9.80;7.38;;;21.80;94.40;;;;;;5072737;28;20017;-73
2023/07/02 00:12:40;;;;;;;11.73;7.63;;;21.80;94.40;;;;;;5073298;28;20047;-73
2023/07/02 00:15:06;;;;;;;9.55;7.50;;;21.80;94.50;;;;;;5072904;28;20044;-73
2023/07/02 00:17:31;;;;;;;10.05;7.20;;;21.80;94.50;;;;;;5073219;28;20048;-73
2023/07/02 00:20:02;;;;;;;14.27;7.70;;;21.70;94.40;;;;;;5073086;28;20472;-73
2023/07/02 00:22:28;;;;;;;10.38;7.30;;;21.70;94.40;;;;;;5055575;28;20120;-73
2023/07/02 00:24:55;;;;;;;11.73;7.35;;;21.70;94.50;;;;;;5072917;28;20091;-73
2023/07/02 00:27:21;;;;;;;14.55;7.22;;;21.70;94.50;;;;;;5072596;28;20023;-73
2023/07/02 00:29:47;;;;;;;10.93;7.38;;;21.70;94.50;;;;;;5072641;28;20028;-73
2023/07/02 00:32:12;;;;;;;9.60;7.18;;;21.70;94.50;;;;;;5054623;28;20017;-73
2023/07/02 00:34:38;;;;;;;11.48;7.03;;;21.60;94.50;;;;;;5072720;28;20028;-73
2023/07/02 00:37:04;;;;;;;8.68;7.38;;;21.60;94.80;;;;;;5073057;28;20048;-73
2023/07/02 00:39:30;;;;;;;9.30;7.00;;;21.60;94.50;;;;;;5072853;28;20036;-73
2023/07/02 00:42:04;;;;;;;10.00;7.90;;;21.60;94.50;;;;;;5072800;28;20025;-73
2023/07/02 00:44:30;;;;;;;11.35;7.28;;;21.60;94.50;;;;;;5072799;28;20094;-72
2023/07/02 00:46:55;;;;;;;9.55;7.28;;;21.50;94.50;;;;;;5072856;28;20518;-72
2023/07/02 00:49:22;;;;;;;10.90;7.25;;;21.50;94.50;;;;;;5072716;28;20024;-72
2023/07/02 00:51:48;;;;;;;9.98;7.65;;;21.50;94.50;;;;;;5072551;28;20025;-73
2023/07/02 00:54:14;;;;;;;9.45;6.95;;;21.50;94.50;;;;;;5072752;28;20109;-72
2023/07/02 00:56:40;;;;;;;11.90;7.68;;;21.50;94.50;;;;;;5072588;28;20031;-72
2023/07/02 00:59:06;;;;;;;10.07;6.25;;;21.50;94.40;;;;;;5069833;28;20020;-72
2023/07/02 01:01:37;;;;;;;10.40;7.07;;;21.50;94.30;;;;;;5069691;28;20387;-72
2023/07/02 01:04:05;;;;;;;11.27;6.95;;;21.50;94.30;;;;;;5071671;28;20036;-72
2023/07/02 01:06:34;;;;;;;9.75;6.68;;;21.50;94.20;;;;;;5076312;28;20024;-72
2023/07/02 01:09:02;;;;;;;8.95;6.60;;;21.50;94.10;;;;;;5058265;28;20032;-72
2023/07/02 01:11:53;;;;;;;12.25;7.03;;;21.50;94.10;;;;;;5076395;28;20035;-72
2023/07/02 01:14:40;;;;;;;13.73;7.35;;;21.40;94.00;;;;;;5076163;28;20035;-72
2023/07/02 01:17:06;;;;;;;12.00;7.28;;;21.40;94.00;;;;;;5076200;28;20032;-73
2023/07/02 01:19:53;;;;;;;10.27;7.68;;;21.30;93.90;;;;;;5076321;28;20087;-73
2023/07/02 01:22:24;;;;;;;11.07;7.07;;;21.30;93.90;;;;;;5075721;28;20098;-72
2023/07/02 01:24:51;;;;;;;11.88;7.18;;;21.30;93.90;;;;;;5076131;28;20126;-73
2023/07/02 01:27:17;;;;;;;12.50;7.88;;;21.30;93.80;;;;;;5076012;28;20027;-72
2023/07/02 01:29:46;;;;;;;13.45;7.25;;;21.30;93.80;;;;;;5075993;28;20071;-73
2023/07/02 01:32:13;;;;;;;10.95;6.80;;;21.20;93.70;;;;;;5058017;28;20487;-73
2023/07/02 01:34:40;;;;;;;13.13;7.40;;;21.20;93.70;;;;;;5076079;28;20067;-72
2023/07/02 01:37:06;;;;;;;11.45;7.35;;;21.20;93.70;;;;;;5076051;28;20025;-72
2023/07/02 01:39:32;;;;;;;10.77;7.18;;;21.20;93.70;;;;;;5075923;28;20029;-73
2023/07/02 01:42:27;;;;;;;11.18;6.90;;;21.20;93.60;;;;;;5076005;28;20098;-72
2023/07/02 01:44:53;;;;;;;10.65;7.82;;;21.20;93.60;;;;;;5054511;28;20521;-72
2023/07/02 01:47:19;;;;;;;15.23;7.63;;;21.20;93.50;;;;;;5075739;28;20040;-73
2023/07/02 01:49:45;;;;;;;12.35;7.68;;;21.20;93.50;;;;;;5075985;28;20104;-73
2023/07/02 01:52:11;;;;;;;11.77;7.22;;;21.20;93.60;;;;;;5075851;28;20104;-73
2023/07/02 01:54:36;;;;;;;14.77;7.65;;;21.10;93.80;;;;;;5075480;28;20025;-72
2023/07/02 01:57:03;;;;;;;11.20;7.45;;;21.10;94.00;;;;;;5075589;28;20017;-73
2023/07/02 01:59:29;;;;;;;11.82;7.63;;;21.10;94.10;;;;;;5075642;28;20417;-73
2023/07/02 02:01:55;;;;;;;14.07;8.18;;;21.10;94.30;;;;;;5075694;28;20052;-72
2023/07/02 02:04:20;;;;;;;12.93;8.10;;;21.00;94.30;;;;;;5075541;28;20048;-72
2023/07/02 02:06:46;;;;;;;13.05;7.43;;;21.00;94.40;;;;;;5075279;28;20103;-72
2023/07/02 02:09:12;;;;;;;8.63;7.00;;;21.00;94.40;;;;;;5075344;28;20025;-72
2023/07/02 02:11:49;;;;;;;10.35;7.13;;;21.00;94.40;;;;;;5074902;28;20017;-73
2023/07/02 02:14:15;;;;;;;13.18;7.65;;;21.00;94.30;;;;;;5075080;28;20078;-73
2023/07/02 02:16:40;;;;;;;11.43;7.40;;;21.00;94.20;;;;;;5074046;28;20523;-72
2023/07/02 02:19:06;;;;;;;13.95;7.95;;;20.90;94.30;;;;;;5075261;28;20039;-73
2023/07/02 02:21:32;;;;;;;17.00;7.97;;;20.90;94.30;;;;;;5075205;28;20028;-72
2023/07/02 02:23:58;;;;;;;11.77;7.45;;;20.90;94.40;;;;;;5074853;28;20036;-72
2023/07/02 02:26:25;;;;;;;12.95;7.55;;;20.90;94.40;;;;;;5074901;28;20023;-72
2023/07/02 02:28:51;;;;;;;10.30;7.50;;;20.90;94.50;;;;;;5074845;28;20103;-73
2023/07/02 02:31:17;;;;;;;12.57;6.80;;;20.90;94.50;;;;;;5075025;28;20017;-72
2023/07/02 02:33:43;;;;;;;11.15;7.00;;;20.90;94.50;;;;;;5074974;28;20035;-73
2023/07/02 02:36:09;;;;;;;11.48;7.55;;;20.90;94.50;;;;;;5056688;28;20043;-73
2023/07/02 02:38:37;;;;;;;13.80;7.50;;;20.80;94.40;;;;;;5074917;28;20476;-72
2023/07/02 02:41:02;;;;;;;12.18;7.85;;;20.80;94.50;;;;;;5074833;28;20025;-73
2023/07/02 02:43:28;;;;;;;13.50;8.05;;;20.80;94.50;;;;;;5074736;28;20033;-72
2023/07/02 02:45:54;;;;;;;11.35;7.40;;;20.80;94.60;;;;;;5074740;28;20020;-73
2023/07/02 02:48:22;;;;;;;10.48;7.18;;;20.80;94.60;;;;;;5074411;28;20064;-73
2023/07/02 02:50:47;;;;;;;10.93;7.57;;;20.80;94.70;;;;;;5074511;28;20544;-73
2023/07/02 02:53:13;;;;;;;9.93;7.53;;;20.80;94.60;;;;;;5074641;28;20111;-73
2023/07/02 02:55:39;;;;;;;10.43;7.95;;;20.70;94.60;;;;;;5074399;28;20025;-73
2023/07/02 02:58:05;;;;;;;11.00;7.50;;;20.70;94.60;;;;;;5074020;28;20031;-73
2023/07/02 03:00:30;;;;;;;13.10;7.70;;;20.70;94.50;;;;;;5074324;28;20028;-73
2023/07/02 03:02:56;;;;;;;10.43;8.27;;;20.70;94.60;;;;;;5055989;28;20032;-73
2023/07/02 03:05:22;;;;;;;11.35;7.90;;;20.70;94.60;;;;;;5073965;28;20020;-73
2023/07/02 03:07:50;;;;;;;13.75;8.10;;;20.70;94.60;;;;;;5074317;28;20491;-73
2023/07/02 03:10:16;;;;;;;12.00;7.40;;;20.70;94.50;;;;;;5074184;28;20166;-73
2023/07/02 03:12:42;;;;;;;12.13;7.45;;;20.70;94.50;;;;;;5074125;28;20103;-72
2023/07/02 03:15:09;;;;;;;11.65;7.65;;;20.60;94.40;;;;;;5073515;28;20044;-73
2023/07/02 03:17:35;;;;;;;13.32;7.90;;;20.60;94.40;;;;;;5074280;28;20111;-72
2023/07/02 03:20:00;;;;;;;10.10;7.68;;;20.60;94.40;;;;;;5073841;28;20111;-73
2023/07/02 03:22:26;;;;;;;12.32;8.07;;;20.70;94.50;;;;;;5073983;28;20031;-73
2023/07/02 03:24:52;;;;;;;12.35;7.80;;;20.60;94.40;;;;;;5073810;28;20036;-73
2023/07/02 03:27:17;;;;;;;11.88;8.30;;;20.60;94.30;;;;;;5073426;28;20074;-73
2023/07/02 03:29:43;;;;;;;12.35;7.93;;;20.60;94.40;;;;;;5073843;28;20042;-73
2023/07/02 03:32:09;;;;;;;13.20;7.68;;;20.60;94.30;;;;;;5073897;28;20099;-73
2023/07/02 03:34:35;;;;;;;10.23;7.68;;;20.60;94.30;;;;;;5073959;28;20020;-73
2023/07/02 03:37:00;;;;;;;11.32;7.28;;;20.60;94.30;;;;;;5073854;28;20028;-73
2023/07/02 03:39:26;;;;;;;10.10;7.30;;;20.60;94.30;;;;;;5073510;28;20043;-73
2023/07/02 03:41:52;;;;;;;10.30;7.72;;;20.60;94.20;;;;;;5073765;28;20020;-73
2023/07/02 03:44:19;;;;;;;12.50;7.15;;;20.60;94.10;;;;;;5073599;28;20043;-73
2023/07/02 03:46:45;;;;;;;11.57;7.32;;;20.50;93.90;;;;;;5073528;28;20016;-73
2023/07/02 03:49:10;;;;;;;11.63;7.80;;;20.50;94.00;;;;;;5073238;28;20027;-73
2023/07/02 03:51:36;;;;;;;15.95;8.38;;;20.50;94.30;;;;;;5073349;28;20035;-73
2023/07/02 03:54:02;;;;;;;12.20;7.20;;;20.40;94.10;;;;;;5073087;28;20028;-73
2023/07/02 03:56:28;;;;;;;12.73;7.63;;;20.40;94.10;;;;;;5073400;28;20020;-73
2023/07/02 03:58:53;;;;;;;10.98;7.38;;;20.40;94.20;;;;;;5073321;28;20035;-73
2023/07/02 04:01:19;;;;;;;15.02;8.05;;;20.40;94.30;;;;;;5073310;28;20071;-73
2023/07/02 04:03:49;;;;;;;13.13;7.63;;;20.40;94.40;;;;;;5073275;28;20028;-72
2023/07/02 04:06:15;;;;;;;11.10;7.65;;;20.40;94.40;;;;;;5073173;28;20068;-73
2023/07/02 04:08:41;;;;;;;13.35;7.50;;;20.40;94.70;;;;;;5073161;28;20491;-73
2023/07/02 04:11:07;;;;;;;9.18;7.13;;;20.30;94.50;;;;;;5073267;28;20016;-72
2023/07/02 04:13:33;;;;;;;10.48;6.80;;;20.30;94.50;;;;;;5055412;28;20032;-72
2023/07/02 04:15:58;;;;;;;11.65;7.18;;;20.30;94.80;;;;;;5073144;28;20044;-73
2023/07/02 04:18:24;;;;;;;12.15;8.02;;;20.30;94.60;;;;;;5072996;28;20024;-73
2023/07/02 04:20:50;;;;;;;9.02;7.20;;;20.30;94.60;;;;;;5072892;28;20020;-72
2023/07/02 04:23:16;;;;;;;11.27;7.50;;;20.30;94.60;;;;;;5072752;28;20028;-73
2023/07/02 04:25:42;;;;;;;10.00;7.78;;;20.30;94.50;;;;;;5072617;28;20046;-73
2023/07/02 04:28:07;;;;;;;9.00;7.40;;;20.30;94.60;;;;;;5072992;28;20029;-73
2023/07/02 04:30:34;;;;;;;17.60;7.75;;;20.30;94.60;;;;;;5072930;28;20103;-73
2023/07/02 04:33:00;;;;;;;12.63;7.60;;;20.30;94.70;;;;;;5072941;28;20021;-73
2023/07/02 04:35:25;;;;;;;12.68;7.35;;;20.30;94.70;;;;;;5072966;28;20032;-73
2023/07/02 04:37:51;;;;;;;11.57;7.57;;;20.30;94.70;;;;;;5072279;28;20036;-74
2023/07/02 04:40:17;;;;;;;11.35;7.40;;;20.30;94.70;;;;;;5072674;28;20028;-73
2023/07/02 04:42:46;;;;;;;9.68;7.53;;;20.30;94.70;;;;;;5072573;28;20032;-74
2023/07/02 04:45:15;;;;;;;10.27;7.55;;;20.40;94.70;;;;;;5072748;28;20032;-72
2023/07/02 04:47:42;;;;;;;12.50;7.25;;;20.40;94.70;;;;;;5072518;28;20495;-73
2023/07/02 04:50:08;;;;;;;13.85;8.18;;;20.40;94.70;;;;;;5072423;28;20496;-74
2023/07/02 04:52:34;;;;;;;10.10;6.80;;;20.40;94.60;;;;;;5072522;28;20079;-73
2023/07/02 04:54:59;;;;;;;13.70;7.43;;;20.40;94.60;;;;;;5072689;28;20035;-74
2023/07/02 04:57:25;;;;;;;14.93;7.95;;;20.50;94.60;;;;;;5072697;28;20036;-74
2023/07/02 04:59:51;;;;;;;11.48;7.68;;;20.50;94.50;;;;;;5072655;28;20033;-73
2023/07/02 05:02:20;;;;;;;9.27;7.18;;;20.50;94.40;;;;;;5073710;28;20028;-72
2023/07/02 05:04:46;;;;;;;14.80;7.72;;;20.50;94.30;;;;;;5055964;28;20086;-72
2023/07/02 05:07:12;;;;;;;10.60;7.07;;;20.60;94.30;;;;;;5072576;28;20025;-72
2023/07/02 05:09:38;;;;;;;13.25;7.18;;;20.50;94.20;;;;;;5072511;28;20032;-72
2023/07/02 05:12:04;;;;;;;11.85;7.13;;;20.60;94.20;;;;;;5072798;28;20024;-72
2023/07/02 05:14:29;;;;;;;9.75;7.20;;;20.60;94.10;;;;;;5072738;28;20024;-72
2023/07/02 05:16:55;;;;;;;10.88;7.32;;;20.60;94.10;;;;;;5072216;28;20091;-72
2023/07/02 05:19:21;;;;;;;9.40;7.35;;;20.60;94.20;;;;;;5072329;28;20021;-76
2023/07/02 05:21:47;;;;;;;8.90;7.28;;;20.60;94.20;;;;;;5072261;28;20461;-76
2023/07/02 05:24:12;;;;;;;12.25;7.35;;;20.70;94.30;;;;;;5072413;28;20037;-75
2023/07/02 05:26:38;;;;;;;10.93;7.40;;;20.60;94.30;;;;;;5072511;28;20087;-76
2023/07/02 05:29:05;;;;;;;11.13;7.32;;;20.60;94.20;;;;;;5072410;28;20039;-76
2023/07/02 05:31:31;;;;;;;11.27;6.68;;;20.60;94.30;;;;;;5072434;28;20037;-76
2023/07/02 05:33:57;;;;;;;9.88;7.05;;;20.60;94.30;;;;;;5071975;28;20052;-76
2023/07/02 05:36:23;;;;;;;10.20;7.82;;;20.60;94.40;;;;;;5072252;28;20020;-76
2023/07/02 05:38:48;;;;;;;10.35;7.38;;;20.70;94.50;;;;;;5072277;28;20029;-75
2023/07/02 05:41:21;;;;;;;8.82;7.10;;;20.70;94.50;;;;;;5072149;28;20110;-75
2023/07/02 05:43:47;;;;;;;14.77;7.25;;;20.70;94.50;;;;;;5072227;28;20032;-75
2023/07/02 05:46:14;;;;;;;10.77;6.60;;;20.80;94.50;;;;;;5072100;28;20464;-75
2023/07/02 05:48:40;;;;;;;9.80;7.65;;;20.70;94.50;;;;;;5069348;28;20032;-76
2023/07/02 05:51:07;;;;;;;11.50;6.70;;;20.80;94.40;;;;;;5072610;28;20483;-75
2023/07/02 05:53:32;;;;;;;8.00;6.68;;;20.80;94.40;;;;;;5073422;28;20050;-75
2023/07/02 05:55:58;;;;;;;10.02;7.13;;;20.90;94.40;;;;;;5075438;28;20054;-75
2023/07/02 05:58:24;;;;;;;8.30;6.68;;;20.90;94.30;;;;;;5075432;28;20024;-75
2023/07/02 06:00:50;;;;;;;11.80;7.10;;;20.90;94.20;;;;;;5075563;28;20020;-75
2023/07/02 06:03:19;;;;;;;10.00;7.30;;;20.90;94.20;;;;;;5075128;28;20087;-75
2023/07/02 06:05:48;;;;;;;16.02;7.55;;;21.00;94.10;;;;;;5075317;28;20031;-75
2023/07/02 06:08:15;;;;;;;11.13;7.10;;;21.00;94.00;;;;;;5075429;28;20025;-75
2023/07/02 06:10:42;;;;;;;9.48;6.97;;;21.00;94.00;;;;;;5075261;28;20031;-76
2023/07/02 06:13:08;;;;;;;10.85;7.53;;;21.10;93.90;;;;;;5075507;28;20016;-75
2023/07/02 06:15:34;;;;;;;10.32;6.82;;;21.10;93.90;;;;;;5074779;28;20127;-77
2023/07/02 06:17:59;;;;;;;8.63;6.35;;;21.20;93.90;;;;;;5072319;28;20112;-76
2023/07/02 06:20:25;;;;;;;8.50;7.03;;;21.20;93.80;;;;;;5054176;28;20115;-76
2023/07/02 06:22:51;;;;;;;12.65;6.38;;;21.20;93.70;;;;;;5074322;28;20108;-78
2023/07/02 06:25:17;;;;;;;10.02;6.78;;;21.30;93.60;;;;;;5074827;28;20036;-75
2023/07/02 06:27:42;;;;;;;7.50;6.45;;;21.30;93.50;;;;;;5074969;28;20074;-75
2023/07/02 06:30:08;;;;;;;14.07;7.45;;;21.30;93.50;;;;;;5075053;28;20054;-76
2023/07/02 06:32:34;;;;;;;16.23;7.82;;;21.30;93.30;;;;;;5074329;28;20035;-78
2023/07/02 06:35:00;;;;;;;8.98;6.88;;;21.40;93.20;;;;;;5074746;28;20021;-75
2023/07/02 06:37:26;;;;;;;8.02;6.30;;;21.40;93.00;;;;;;5074679;28;20146;-78
2023/07/02 06:39:52;;;;;;;8.20;5.95;;;21.50;92.90;;;;;;5074823;28;20028;-77
2023/07/02 06:42:17;;;;;;;8.38;6.18;;;21.50;92.80;;;;;;5074783;28;20035;-76
2023/07/02 06:44:43;;;;;;;8.48;6.40;;;21.50;92.60;;;;;;5074514;28;21343;-77
2023/07/02 06:47:09;;;;;;;7.43;6.32;;;21.50;92.60;;;;;;5074484;28;20031;-77
2023/07/02 06:49:35;;;;;;;9.55;6.97;;;21.50;92.60;;;;;;5074328;28;20051;-77
2023/07/02 06:52:00;;;;;;;9.23;6.55;;;21.50;92.60;;;;;;5074349;28;20070;-77
2023/07/02 06:54:26;;;;;;;8.02;6.47;;;21.60;92.60;;;;;;5074365;28;20016;-77
2023/07/02 06:56:52;;;;;;;8.65;6.40;;;21.60;92.50;;;;;;5055990;28;20362;-77
2023/07/02 06:59:22;;;;;;;9.07;7.00;;;21.60;92.50;;;;;;5074323;28;20078;-77
2023/07/02 07:01:49;;;;;;;11.15;6.95;;;21.70;92.50;;;;;;5087561;28;20046;-76
2023/07/02 07:04:15;;;;;;;9.43;6.95;;;21.80;92.50;;;;;;5091324;28;20084;-76
2023/07/02 07:06:41;;;;;;;10.95;6.50;;;21.80;92.50;;;;;;5082350;28;20106;-76
2023/07/02 07:09:06;;;;;;;10.25;6.35;;;21.90;92.50;;;;;;5095237;28;20020;-75
2023/07/02 07:11:32;;;;;;;8.07;6.70;;;21.90;92.40;;;;;;5096285;28;20032;-76
2023/07/02 07:13:58;;;;;;;8.43;6.68;;;22.00;92.20;;;;;;5085397;28;20082;-76
2023/07/02 07:16:24;;;;;;;10.75;7.05;;;22.10;92.00;;;;;;5074085;28;20055;-75
2023/07/02 07:18:50;;;;;;;11.13;6.90;;;22.10;91.80;;;;;;5073927;28;20080;-76
2023/07/02 07:21:16;;;;;;;9.18;6.43;;;22.20;91.60;;;;;;5073643;28;20051;-76
2023/07/02 07:23:42;;;;;;;10.18;6.75;;;22.30;91.60;;;;;;5073807;28;20135;-77
2023/07/02 07:26:08;;;;;;;8.70;6.20;;;22.30;91.60;;;;;;5074298;28;20020;-76
2023/07/02 07:28:33;;;;;;;10.68;6.70;;;22.30;91.60;;;;;;5073895;28;20028;-77
2023/07/02 07:30:59;;;;;;;9.77;6.63;;;22.40;91.60;;;;;;5074045;28;20021;-77
2023/07/02 07:33:25;;;;;;;12.45;7.22;;;22.50;91.40;;;;;;5073888;28;20024;-76
2023/07/02 07:35:51;;;;;;;8.52;6.45;;;22.50;91.00;;;;;;5073648;28;20021;-77
2023/07/02 07:38:16;;;;;;;11.95;6.40;;;22.60;90.90;;;;;;5073983;28;20081;-77
2023/07/02 07:40:43;;;;;;;9.77;6.50;;;22.60;90.90;;;;;;5073919;28;20024;-76
2023/07/02 07:43:09;;;;;;;8.70;6.10;;;22.60;90.80;;;;;;5073530;28;20033;-76
2023/07/02 07:45:35;;;;;;;8.65;6.40;;;22.70;90.70;;;;;;5073630;28;20043;-76
2023/07/02 07:48:01;;;;;;;8.50;6.47;;;22.70;90.30;;;;;;5073561;28;20016;-76
2023/07/02 07:50:27;;;;;;;7.38;6.65;;;22.80;90.00;;;;;;5073561;28;20024;-77
2023/07/02 07:52:53;;;;;;;10.20;6.30;;;22.80;90.00;;;;;;5073420;28;20044;-76
2023/07/02 07:55:19;;;;;;;10.50;6.82;;;22.90;89.50;;;;;;5073310;28;20056;-77
2023/07/02 07:57:44;;;;;;;7.55;6.22;;;22.90;89.60;;;;;;5073283;28;20025;-77
2023/07/02 08:00:11;;;;;;;7.18;5.90;;;23.00;89.10;;;;;;5073295;28;20129;-77
2023/07/02 08:02:36;;;;;;;9.90;6.60;;;23.00;88.60;;;;;;5073345;28;20408;-77
2023/07/02 08:05:03;;;;;;;7.57;6.38;;;23.10;88.60;;;;;;5073185;28;20036;-76
2023/07/02 08:07:30;;;;;;;8.13;6.10;;;23.10;88.70;;;;;;5073301;28;20046;-76
2023/07/02 08:09:56;;;;;;;13.20;7.28;;;23.20;89.00;;;;;;5073756;28;20025;-77
2023/07/02 08:12:22;;;;;;;7.43;6.15;;;23.20;88.70;;;;;;5072817;28;20047;-76
2023/07/02 08:14:47;;;;;;;8.55;6.22;;;23.30;88.70;;;;;;5054455;28;20028;-77
2023/07/02 08:17:13;;;;;;;9.77;6.50;;;23.30;88.30;;;;;;5073536;28;20112;-77
2023/07/02 08:19:39;;;;;;;10.13;6.85;;;23.40;88.30;;;;;;5073314;28;20029;-77
2023/07/02 08:22:05;;;;;;;7.72;6.50;;;23.40;87.80;;;;;;5073103;28;20016;-78
2023/07/02 08:24:31;;;;;;;10.27;6.40;;;23.50;87.20;;;;;;5054823;28;20083;-78
2023/07/02 08:26:58;;;;;;;8.13;6.38;;;23.50;86.80;;;;;;5073093;28;20012;-77
2023/07/02 08:29:24;;;;;;;10.50;6.50;;;23.60;86.60;;;;;;5073020;28;20380;-77
2023/07/02 08:31:49;;;;;;;8.65;6.72;;;23.60;86.30;;;;;;5073001;28;20021;-78
2023/07/02 08:34:15;;;;;;;12.93;6.40;;;23.70;85.60;;;;;;5073044;28;20043;-77
2023/07/02 08:36:43;;;;;;;8.95;6.35;;;23.70;85.40;;;;;;5055038;28;20013;-77
2023/07/02 08:39:09;;;;;;;11.60;6.57;;;23.80;84.90;;;;;;5054978;28;20397;-77
2023/07/02 08:41:48;;;;;;;8.65;6.72;;;23.90;83.90;;;;;;5072957;28;20028;-77
2023/07/02 08:44:18;;;;;;;7.80;6.18;;;23.90;83.20;;;;;;5072631;28;20488;-77
2023/07/02 08:46:44;;;;;;;8.68;6.00;;;24.00;83.40;;;;;;5072244;28;20081;-78
2023/07/02 08:49:11;;;;;;;8.82;6.53;;;24.00;83.00;;;;;;5072605;28;20092;-77
2023/07/02 08:51:37;;;;;;;12.68;6.65;;;24.10;83.30;;;;;;5072841;28;20144;-77
2023/07/02 08:54:03;;;;;;;10.63;6.20;;;24.20;83.00;;;;;;5072593;28;20581;-77
2023/07/02 08:56:29;;;;;;;6.53;5.53;;;24.20;83.00;;;;;;5072793;28;20465;-77
2023/07/02 08:58:55;;;;;;;7.95;6.15;;;24.30;82.90;;;;;;5072892;28;20376;-78
2023/07/02 09:01:22;;;;;;;7.63;5.25;;;24.30;82.80;;;;;;5072852;28;20103;-78
2023/07/02 09:03:49;;;;;;;6.68;5.13;;;24.50;82.40;;;;;;5072834;28;20128;-78
2023/07/02 09:06:18;;;;;;;9.43;5.40;;;24.50;81.50;;;;;;5072669;28;20086;-77
2023/07/02 09:08:44;;;;;;;6.45;5.43;;;24.60;79.40;;;;;;5072630;28;20031;-78
2023/07/02 09:11:18;;;;;;;10.85;5.30;;;24.60;79.80;;;;;;5072650;28;20050;-77
2023/07/02 09:13:58;;;;;;;6.43;4.95;;;24.70;80.30;;;;;;5054553;28;20393;-77
2023/07/02 09:16:32;;;;;;;11.45;4.95;;;24.80;80.30;;;;;;5080216;22;20057;-77
2023/07/02 09:19:08;;;;;;;6.80;5.30;;;24.90;80.10;;;;;;5072373;28;20016;-77
2023/07/02 09:21:45;;;;;;;7.30;4.63;;;24.90;80.40;;;;;;5071706;28;20507;-77
2023/07/02 09:24:12;;;;;;;7.88;4.28;;;25.00;79.70;;;;;;5072663;28;20040;-76
2023/07/02 09:26:41;;;;;;;5.75;4.55;;;25.10;79.80;;;;;;5076187;28;20028;-76
2023/07/02 09:29:07;;;;;;;6.03;4.50;;;25.10;79.50;;;;;;5076242;28;20021;-76
2023/07/02 09:31:46;;;;;;;7.80;4.20;;;25.20;78.30;;;;;;5075253;28;20039;-77
2023/07/02 09:34:13;;;;;;;6.45;4.13;;;25.30;78.50;;;;;;5074662;28;20066;-77
2023/07/02 09:36:42;;;;;;;4.18;3.42;;;25.30;78.50;;;;;;5076041;28;20601;-77
2023/07/02 09:39:13;;;;;;;4.45;3.72;;;25.40;77.10;;;;;;5074938;28;20026;-77
2023/07/02 09:41:42;;;;;;;4.63;3.60;;;25.50;76.30;;;;;;5076326;28;20029;-77
2023/07/02 09:44:12;;;;;;;4.45;3.90;;;25.50;75.70;;;;;;5075983;28;20035;-77
2023/07/02 09:46:45;;;;;;;6.40;4.45;;;25.60;76.40;;;;;;5074873;28;20024;-77
2023/07/02 09:49:14;;;;;;;4.32;3.80;;;25.60;76.90;;;;;;5075717;28;20490;-76
2023/07/02 09:51:41;;;;;;;5.40;4.25;;;25.60;76.20;;;;;;5075909;28;20025;-78
2023/07/02 09:54:07;;;;;;;5.30;4.63;;;25.70;76.30;;;;;;5075818;28;20431;-78
2023/07/02 09:56:33;;;;;;;6.80;4.32;;;25.70;77.10;;;;;;5075801;28;20082;-77
2023/07/02 09:58:59;;;;;;;5.97;4.20;;;25.80;75.70;;;;;;5075589;28;20025;-77
2023/07/02 10:01:25;;;;;;;4.90;3.83;;;25.90;75.50;;;;;;5075777;28;20039;-77
2023/07/02 10:03:51;;;;;;;7.88;4.85;;;25.90;75.80;;;;;;5075371;28;20105;-77
2023/07/02 10:06:16;;;;;;;5.93;4.32;;;26.00;75.40;;;;;;5075470;28;20020;-77
2023/07/02 10:08:56;;;;;;;6.55;4.55;;;26.10;75.40;;;;;;5075381;28;20021;-78
2023/07/02 10:11:35;;;;;;;6.15;4.72;;;26.10;74.60;;;;;;5074219;28;20051;-77
2023/07/02 10:14:00;;;;;;;6.88;4.38;;;26.20;74.80;;;;;;5074544;28;20450;-77
2023/07/02 10:16:27;;;;;;;6.90;4.70;;;26.30;74.80;;;;;;5073780;28;20124;-77
2023/07/02 10:18:54;;;;;;;6.05;4.03;;;26.30;76.00;;;;;;5074679;28;20024;-77
2023/07/02 10:21:20;;;;;;;4.38;3.90;;;26.40;75.90;;;;;;5074652;28;20016;-77
2023/07/02 10:23:46;;;;;;;5.78;4.18;;;26.50;74.80;;;;;;5074913;28;20043;-77
2023/07/02 10:26:16;;;;;;;5.78;4.20;;;26.60;73.90;;;;;;5074881;28;20487;-77
2023/07/02 10:28:42;;;;;;;6.10;4.25;;;26.60;72.60;;;;;;5073619;28;20119;-77
2023/07/02 10:31:21;;;;;;;5.03;4.10;;;26.60;73.50;;;;;;5074585;28;20024;-76
2023/07/02 10:33:47;;;;;;;5.15;4.32;;;26.70;74.10;;;;;;5074880;28;20479;-76
2023/07/02 10:36:24;;;;;;;5.35;3.67;;;26.70;73.90;;;;;;5072939;28;20350;-77
2023/07/02 10:38:51;;;;;;;7.25;5.15;;;26.80;73.90;;;;;;5074639;28;20032;-76
2023/07/02 10:41:29;;;;;;;6.57;4.50;;;26.90;74.20;;;;;;5073457;28;20017;-76
2023/07/02 10:44:08;;;;;;;5.82;4.57;;;26.90;73.50;;;;;;5074557;28;20036;-76
2023/07/02 10:46:34;;;;;;;5.60;4.57;;;27.00;71.50;;;;;;5074404;28;20012;-76
2023/07/02 10:49:00;;;;;;;5.78;4.18;;;27.00;71.70;;;;;;5073349;28;20029;-75
2023/07/02 10:51:28;;;;;;;5.90;4.50;;;27.00;71.60;;;;;;5074439;28;20085;-75
2023/07/02 10:54:00;;;;;;;8.82;4.57;;;27.00;71.70;;;;;;5074177;28;20106;-75
2023/07/02 10:56:27;;;;;;;5.38;4.15;;;27.10;72.60;;;;;;5074301;28;20032;-76
2023/07/02 10:58:54;;;;;;;5.55;4.20;;;27.10;72.80;;;;;;5071973;28;20035;-78
2023/07/02 11:01:23;;;;;;;6.38;4.57;;;27.20;71.80;;;;;;5071829;28;20031;-75
2023/07/02 11:04:05;;;;;;;8.00;4.50;;;27.20;72.80;;;;;;5072672;28;20051;-76
2023/07/02 11:06:32;;;;;;;5.38;4.43;;;27.30;72.50;;;;;;5074176;28;20024;-77
2023/07/02 11:08:59;;;;;;;6.20;5.20;;;27.30;72.30;;;;;;5074164;28;20020;-76
2023/07/02 11:11:25;;;;;;;4.95;4.40;;;27.40;73.30;;;;;;5074129;28;20472;-75
2023/07/02 11:13:52;;;;;;;4.90;4.13;;;27.40;71.70;;;;;;5073703;28;20485;-76
2023/07/02 11:16:25;;;;;;;6.70;4.40;;;27.50;71.80;;;;;;5073341;28;20499;-76
2023/07/02 11:19:10;;;;;;;4.68;3.88;;;27.50;71.70;;;;;;5073701;28;20123;-75
2023/07/02 11:21:37;;;;;;;5.32;3.95;;;27.60;71.50;;;;;;5073882;28;20042;-75
2023/07/02 11:24:04;;;;;;;4.20;3.80;;;27.70;70.60;;;;;;5071145;28;20064;-75
2023/07/02 11:26:40;;;;;;;6.40;4.03;;;27.70;69.40;;;;;;5069939;28;20064;-76
2023/07/02 11:29:12;;;;;;;5.25;4.07;;;27.70;68.80;;;;;;5070628;28;20051;-75
2023/07/02 11:31:38;;;;;;;6.57;4.22;;;27.80;67.10;;;;;;5072063;28;20056;-76
2023/07/02 11:34:18;;;;;;;5.47;4.20;;;27.70;67.10;;;;;;5072032;28;20021;-75
2023/07/02 11:36:44;;;;;;;5.22;3.70;;;27.80;67.70;;;;;;5073184;28;20096;-76
2023/07/02 11:39:12;;;;;;;5.60;4.03;;;27.70;68.80;;;;;;5073064;28;20507;-76
2023/07/02 11:41:42;;;;;;;5.22;3.55;;;27.80;67.60;;;;;;5072777;28;20052;-75
2023/07/02 11:44:09;;;;;;;5.25;3.60;;;27.90;68.50;;;;;;5073029;28;20028;-77
2023/07/02 11:46:35;;;;;;;5.53;4.07;;;27.90;68.70;;;;;;5072649;28;20033;-76
2023/07/02 11:49:01;;;;;;;4.55;3.58;;;27.90;68.40;;;;;;5073151;28;20028;-77
2023/07/02 11:51:28;;;;;;;5.22;3.63;;;28.00;65.50;;;;;;5073259;28;20476;-77
2023/07/02 11:53:53;;;;;;;7.50;3.40;;;28.00;65.10;;;;;;5072835;28;20093;-76
2023/07/02 11:56:19;;;;;;;4.70;3.60;;;28.00;65.80;;;;;;5073107;28;20008;-75
2023/07/02 11:58:45;;;;;;;3.97;3.45;;;28.10;64.00;;;;;;5072996;28;20020;-77
2023/07/02 12:01:11;;;;;;;4.35;3.40;;;28.00;64.20;;;;;;5071346;28;20027;-76
2023/07/02 12:03:36;;;;;;;4.38;3.40;;;28.00;64.70;;;;;;5072744;28;20044;-76
2023/07/02 12:06:02;;;;;;;4.97;4.05;;;28.10;64.20;;;;;;5072805;28;20056;-76
2023/07/02 12:08:29;;;;;;;5.18;4.20;;;28.00;65.60;;;;;;5072948;28;20024;-77
2023/07/02 12:10:54;;;;;;;5.35;4.55;;;28.00;65.60;;;;;;5073281;28;20048;-76
2023/07/02 12:13:23;;;;;;;4.78;3.83;;;28.00;67.00;;;;;;5072838;28;20117;-76
2023/07/02 12:15:51;;;;;;;4.80;4.07;;;27.90;68.00;;;;;;5072631;28;20508;-76
2023/07/02 12:18:16;;;;;;;5.43;4.05;;;27.90;67.70;;;;;;5072801;28;20070;-76
2023/07/02 12:20:42;;;;;;;7.40;4.03;;;28.00;67.30;;;;;;5071672;28;20451;-77
2023/07/02 12:23:09;;;;;;;5.65;3.80;;;28.00;67.80;;;;;;5072815;28;20028;-77
2023/07/02 12:25:35;;;;;;;5.85;4.05;;;28.10;68.70;;;;;;5072929;28;20474;-76
2023/07/02 12:28:03;;;;;;;5.22;3.95;;;28.10;66.80;;;;;;5072908;28;20044;-76
2023/07/02 12:30:29;;;;;;;4.38;3.70;;;28.20;67.10;;;;;;5072798;28;20029;-76
2023/07/02 12:32:54;;;;;;;7.57;4.13;;;28.30;65.00;;;;;;5072734;28;20027;-76
2023/07/02 12:35:20;;;;;;;4.95;3.42;;;28.30;65.00;;;;;;5072670;28;20056;-76
2023/07/02 12:37:51;;;;;;;5.63;3.83;;;28.30;64.10;;;;;;5071048;28;20392;-76
2023/07/02 12:40:18;;;;;;;4.85;3.72;;;28.30;62.80;;;;;;5072583;28;20074;-77
2023/07/02 12:42:46;;;;;;;5.85;3.58;;;28.30;63.70;;;;;;5072193;28;20048;-75